Hauptseite
METAR-TAF:

METAR-TAF

Flughäfen :

Militärflugplatz Dübendorf

Dübendorf, Schweiz

Breite: 47-23-55N, Länge: 8-38-53E, Höhe: 448 m

Beobachtung

Neuester Wetterbericht von vor 27 Minuten, um 21:50 UTC
Wind 5 kt aus Nord/Nordost, variierte zwischen Nord/Nordwest und Ost/Nordost
Temperatur 3°C
Luftfeuchtigkeit 81%
Luftdruck 995 hPa
Sichtweite 10 km oder mehr
Leicht bewölkt in der Höhe von 24000 ft

METAR: LSMD 142150Z AUTO 02005KT 340V060 9999NDV FEW240 03/M00 Q0995 RMK

Zeit: 23:17 (22:17 UTC)


TAF: fehlend

Wetterbeobachtungen und Prognosen von mehr als 4000 Flughäfen (METAR und TAF Bericht).

Die verfügbaren Stationen werden durch gelbe und rote Markierungen auf der Karte dargestellt.

Führen Sie die Maus auf sie, um den Namen der Station zu sehen.

Darauf klicken, um die Beobachtung von Wetterbeobachtungen und Prognosen zu sehen.

Um die Karte zu ändern : klicken Sie auf den grünen Tasten mit einem schwarzen Kreuz Zum Vergrößern, auf den grünen Button mit einem Gedankenstrich zu verkleinern, oder auf die grünen Pfeile für benachbarte Karten.


METAR-TAF: